sensor_id;sensor_type;location;lat;lon;timestamp;P1;durP1;ratioP1;P2;durP2;ratioP2
5416;SDS011;2731;50.754;12.990;2023-07-28T00:01:22;2.40;;;1.15;;
5416;SDS011;2731;50.754;12.990;2023-07-28T00:04:09;1.65;;;1.38;;
5416;SDS011;2731;50.754;12.990;2023-07-28T00:06:57;2.55;;;1.63;;
5416;SDS011;2731;50.754;12.990;2023-07-28T00:09:44;3.25;;;1.25;;
5416;SDS011;2731;50.754;12.990;2023-07-28T00:12:22;2.70;;;1.10;;
5416;SDS011;2731;50.754;12.990;2023-07-28T00:15:11;2.20;;;1.00;;
5416;SDS011;2731;50.754;12.990;2023-07-28T00:17:40;0.93;;;0.80;;
5416;SDS011;2731;50.754;12.990;2023-07-28T00:20:31;2.55;;;2.03;;
5416;SDS011;2731;50.754;12.990;2023-07-28T00:23:18;2.40;;;1.30;;
5416;SDS011;2731;50.754;12.990;2023-07-28T00:26:04;1.85;;;1.40;;
5416;SDS011;2731;50.754;12.990;2023-07-28T00:28:53;4.13;;;1.45;;
5416;SDS011;2731;50.754;12.990;2023-07-28T00:31:42;2.03;;;1.52;;
5416;SDS011;2731;50.754;12.990;2023-07-28T00:34:28;1.77;;;1.40;;
5416;SDS011;2731;50.754;12.990;2023-07-28T00:37:17;3.60;;;2.10;;
5416;SDS011;2731;50.754;12.990;2023-07-28T00:40:04;2.22;;;1.65;;
5416;SDS011;2731;50.754;12.990;2023-07-28T00:42:33;1.90;;;1.50;;
5416;SDS011;2731;50.754;12.990;2023-07-28T00:45:20;2.03;;;1.10;;
5416;SDS011;2731;50.754;12.990;2023-07-28T00:47:49;2.35;;;1.40;;
5416;SDS011;2731;50.754;12.990;2023-07-28T00:50:35;1.92;;;1.48;;
5416;SDS011;2731;50.754;12.990;2023-07-28T00:53:03;3.13;;;1.30;;
5416;SDS011;2731;50.754;12.990;2023-07-28T00:55:48;2.22;;;1.05;;
5416;SDS011;2731;50.754;12.990;2023-07-28T00:58:36;3.03;;;1.70;;
5416;SDS011;2731;50.754;12.990;2023-07-28T01:01:23;1.50;;;1.23;;
5416;SDS011;2731;50.754;12.990;2023-07-28T01:04:09;4.68;;;1.55;;
5416;SDS011;2731;50.754;12.990;2023-07-28T01:07:30;3.45;;;1.65;;
5416;SDS011;2731;50.754;12.990;2023-07-28T01:10:18;1.70;;;1.20;;
5416;SDS011;2731;50.754;12.990;2023-07-28T01:12:49;1.70;;;1.30;;
5416;SDS011;2731;50.754;12.990;2023-07-28T01:15:18;3.05;;;1.45;;
5416;SDS011;2731;50.754;12.990;2023-07-28T01:17:54;2.45;;;1.42;;
5416;SDS011;2731;50.754;12.990;2023-07-28T01:20:26;1.45;;;1.13;;
5416;SDS011;2731;50.754;12.990;2023-07-28T01:28:16;1.83;;;1.55;;
5416;SDS011;2731;50.754;12.990;2023-07-28T01:30:44;1.35;;;1.02;;
5416;SDS011;2731;50.754;12.990;2023-07-28T01:33:12;1.83;;;1.30;;
5416;SDS011;2731;50.754;12.990;2023-07-28T01:35:41;1.60;;;1.38;;
5416;SDS011;2731;50.754;12.990;2023-07-28T01:38:08;1.20;;;1.08;;
5416;SDS011;2731;50.754;12.990;2023-07-28T01:40:39;1.23;;;1.05;;
5416;SDS011;2731;50.754;12.990;2023-07-28T01:43:09;3.33;;;1.20;;
5416;SDS011;2731;50.754;12.990;2023-07-28T01:45:37;1.00;;;0.90;;
5416;SDS011;2731;50.754;12.990;2023-07-28T01:48:05;0.93;;;0.80;;
5416;SDS011;2731;50.754;12.990;2023-07-28T01:50:36;3.92;;;0.80;;
5416;SDS011;2731;50.754;12.990;2023-07-28T01:53:06;1.30;;;1.00;;
5416;SDS011;2731;50.754;12.990;2023-07-28T01:55:36;2.03;;;1.02;;
5416;SDS011;2731;50.754;12.990;2023-07-28T01:58:04;1.08;;;0.98;;
5416;SDS011;2731;50.754;12.990;2023-07-28T02:00:33;1.83;;;1.00;;
5416;SDS011;2731;50.754;12.990;2023-07-28T02:03:02;1.00;;;0.90;;
5416;SDS011;2731;50.754;12.990;2023-07-28T02:05:30;1.30;;;1.20;;
5416;SDS011;2731;50.754;12.990;2023-07-28T02:07:57;1.58;;;1.00;;
5416;SDS011;2731;50.754;12.990;2023-07-28T02:10:25;1.08;;;0.90;;
5416;SDS011;2731;50.754;12.990;2023-07-28T02:12:56;3.17;;;1.20;;
5416;SDS011;2731;50.754;12.990;2023-07-28T02:15:25;1.35;;;1.02;;
5416;SDS011;2731;50.754;12.990;2023-07-28T02:17:53;0.77;;;0.77;;
5416;SDS011;2731;50.754;12.990;2023-07-28T02:20:21;0.98;;;0.90;;
5416;SDS011;2731;50.754;12.990;2023-07-28T02:22:50;1.45;;;0.88;;
5416;SDS011;2731;50.754;12.990;2023-07-28T02:25:17;4.15;;;0.95;;
5416;SDS011;2731;50.754;12.990;2023-07-28T02:27:46;1.27;;;0.88;;
5416;SDS011;2731;50.754;12.990;2023-07-28T02:30:18;1.42;;;0.90;;
5416;SDS011;2731;50.754;12.990;2023-07-28T02:32:47;1.67;;;0.80;;
5416;SDS011;2731;50.754;12.990;2023-07-28T02:35:15;0.65;;;0.65;;
5416;SDS011;2731;50.754;12.990;2023-07-28T02:37:44;0.95;;;0.93;;
5416;SDS011;2731;50.754;12.990;2023-07-28T02:40:12;0.80;;;0.80;;
5416;SDS011;2731;50.754;12.990;2023-07-28T02:42:39;2.40;;;1.00;;
5416;SDS011;2731;50.754;12.990;2023-07-28T02:45:06;1.15;;;0.73;;
5416;SDS011;2731;50.754;12.990;2023-07-28T02:47:36;1.58;;;1.10;;
5416;SDS011;2731;50.754;12.990;2023-07-28T02:50:06;1.67;;;1.15;;
5416;SDS011;2731;50.754;12.990;2023-07-28T02:52:33;2.75;;;1.05;;
5416;SDS011;2731;50.754;12.990;2023-07-28T02:55:02;3.38;;;0.90;;
5416;SDS011;2731;50.754;12.990;2023-07-28T02:57:31;0.63;;;0.63;;
5416;SDS011;2731;50.754;12.990;2023-07-28T02:59:58;1.85;;;1.00;;
5416;SDS011;2731;50.754;12.990;2023-07-28T03:02:24;4.32;;;1.00;;
5416;SDS011;2731;50.754;12.990;2023-07-28T03:04:55;1.02;;;0.70;;
5416;SDS011;2731;50.754;12.990;2023-07-28T03:07:41;1.67;;;0.75;;
5416;SDS011;2731;50.754;12.990;2023-07-28T03:10:28;2.70;;;0.90;;
5416;SDS011;2731;50.754;12.990;2023-07-28T03:12:56;1.08;;;0.80;;
5416;SDS011;2731;50.754;12.990;2023-07-28T03:15:24;1.00;;;0.90;;
5416;SDS011;2731;50.754;12.990;2023-07-28T03:17:50;2.53;;;0.95;;
5416;SDS011;2731;50.754;12.990;2023-07-28T03:20:57;0.77;;;0.75;;
5416;SDS011;2731;50.754;12.990;2023-07-28T03:23:24;1.35;;;0.95;;
5416;SDS011;2731;50.754;12.990;2023-07-28T03:26:09;1.17;;;0.90;;
5416;SDS011;2731;50.754;12.990;2023-07-28T03:28:55;0.88;;;0.82;;
5416;SDS011;2731;50.754;12.990;2023-07-28T03:31:41;1.00;;;0.80;;
5416;SDS011;2731;50.754;12.990;2023-07-28T03:34:26;0.68;;;0.68;;
5416;SDS011;2731;50.754;12.990;2023-07-28T03:37:13;0.98;;;0.88;;
5416;SDS011;2731;50.754;12.990;2023-07-28T03:39:59;0.75;;;0.75;;
5416;SDS011;2731;50.754;12.990;2023-07-28T03:42:47;0.80;;;0.60;;
5416;SDS011;2731;50.754;12.990;2023-07-28T03:45:32;0.73;;;0.63;;
5416;SDS011;2731;50.754;12.990;2023-07-28T03:48:03;1.42;;;0.95;;
5416;SDS011;2731;50.754;12.990;2023-07-28T03:50:49;0.93;;;0.77;;
5416;SDS011;2731;50.754;12.990;2023-07-28T03:53:16;0.93;;;0.73;;
5416;SDS011;2731;50.754;12.990;2023-07-28T03:56:02;0.70;;;0.70;;
5416;SDS011;2731;50.754;12.990;2023-07-28T03:58:49;2.53;;;0.90;;
5416;SDS011;2731;50.754;12.990;2023-07-28T04:01:36;1.05;;;0.80;;
5416;SDS011;2731;50.754;12.990;2023-07-28T04:04:22;4.28;;;1.15;;
5416;SDS011;2731;50.754;12.990;2023-07-28T04:07:09;2.80;;;0.82;;
5416;SDS011;2731;50.754;12.990;2023-07-28T04:09:55;0.70;;;0.50;;
5416;SDS011;2731;50.754;12.990;2023-07-28T04:12:41;0.60;;;0.60;;
5416;SDS011;2731;50.754;12.990;2023-07-28T04:15:27;0.82;;;0.70;;
5416;SDS011;2731;50.754;12.990;2023-07-28T04:17:54;1.15;;;0.82;;
5416;SDS011;2731;50.754;12.990;2023-07-28T04:20:39;1.75;;;0.73;;
5416;SDS011;2731;50.754;12.990;2023-07-28T04:23:26;1.13;;;0.70;;
5416;SDS011;2731;50.754;12.990;2023-07-28T04:26:11;1.85;;;0.77;;
5416;SDS011;2731;50.754;12.990;2023-07-28T04:28:37;0.52;;;0.50;;
5416;SDS011;2731;50.754;12.990;2023-07-28T04:31:23;0.93;;;0.77;;
5416;SDS011;2731;50.754;12.990;2023-07-28T04:34:12;0.68;;;0.50;;
5416;SDS011;2731;50.754;12.990;2023-07-28T04:36:57;0.85;;;0.50;;
5416;SDS011;2731;50.754;12.990;2023-07-28T04:39:44;0.32;;;0.32;;
5416;SDS011;2731;50.754;12.990;2023-07-28T04:42:32;0.63;;;0.60;;
5416;SDS011;2731;50.754;12.990;2023-07-28T04:45:17;3.00;;;0.70;;
5416;SDS011;2731;50.754;12.990;2023-07-28T04:47:58;0.50;;;0.40;;
5416;SDS011;2731;50.754;12.990;2023-07-28T04:50:45;0.63;;;0.63;;
5416;SDS011;2731;50.754;12.990;2023-07-28T04:53:14;0.50;;;0.50;;
5416;SDS011;2731;50.754;12.990;2023-07-28T04:56:01;3.10;;;0.47;;
5416;SDS011;2731;50.754;12.990;2023-07-28T04:58:29;1.13;;;0.43;;
5416;SDS011;2731;50.754;12.990;2023-07-28T05:01:14;0.30;;;0.30;;
5416;SDS011;2731;50.754;12.990;2023-07-28T05:03:41;0.70;;;0.63;;
5416;SDS011;2731;50.754;12.990;2023-07-28T05:06:25;1.10;;;0.40;;
5416;SDS011;2731;50.754;12.990;2023-07-28T05:08:52;0.52;;;0.47;;
5416;SDS011;2731;50.754;12.990;2023-07-28T05:11:37;0.40;;;0.40;;
5416;SDS011;2731;50.754;12.990;2023-07-28T05:14:24;2.50;;;0.40;;
5416;SDS011;2731;50.754;12.990;2023-07-28T05:17:10;1.75;;;1.10;;
5416;SDS011;2731;50.754;12.990;2023-07-28T05:19:56;1.20;;;0.60;;
5416;SDS011;2731;50.754;12.990;2023-07-28T05:22:42;0.30;;;0.30;;
5416;SDS011;2731;50.754;12.990;2023-07-28T05:25:28;0.35;;;0.35;;
5416;SDS011;2731;50.754;12.990;2023-07-28T05:28:02;0.55;;;0.50;;
5416;SDS011;2731;50.754;12.990;2023-07-28T05:30:48;1.20;;;0.40;;
5416;SDS011;2731;50.754;12.990;2023-07-28T05:33:15;1.20;;;0.50;;
5416;SDS011;2731;50.754;12.990;2023-07-28T05:36:03;0.73;;;0.73;;
5416;SDS011;2731;50.754;12.990;2023-07-28T05:38:31;0.77;;;0.50;;
5416;SDS011;2731;50.754;12.990;2023-07-28T05:41:17;0.60;;;0.40;;
5416;SDS011;2731;50.754;12.990;2023-07-28T05:43:49;0.93;;;0.60;;
5416;SDS011;2731;50.754;12.990;2023-07-28T05:46:34;0.85;;;0.60;;
5416;SDS011;2731;50.754;12.990;2023-07-28T05:49:00;0.90;;;0.40;;
5416;SDS011;2731;50.754;12.990;2023-07-28T05:51:30;0.68;;;0.38;;
5416;SDS011;2731;50.754;12.990;2023-07-28T05:54:18;1.88;;;0.40;;
5416;SDS011;2731;50.754;12.990;2023-07-28T05:57:04;0.50;;;0.38;;
5416;SDS011;2731;50.754;12.990;2023-07-28T05:59:52;0.50;;;0.30;;
5416;SDS011;2731;50.754;12.990;2023-07-28T06:02:39;1.88;;;0.47;;
5416;SDS011;2731;50.754;12.990;2023-07-28T06:05:23;1.38;;;0.50;;
5416;SDS011;2731;50.754;12.990;2023-07-28T06:07:50;0.73;;;0.60;;
5416;SDS011;2731;50.754;12.990;2023-07-28T06:10:36;0.30;;;0.30;;
5416;SDS011;2731;50.754;12.990;2023-07-28T06:13:05;0.93;;;0.57;;
5416;SDS011;2731;50.754;12.990;2023-07-28T06:15:52;2.03;;;0.50;;
5416;SDS011;2731;50.754;12.990;2023-07-28T06:18:43;0.52;;;0.47;;
5416;SDS011;2731;50.754;12.990;2023-07-28T06:21:30;1.75;;;0.40;;
5416;SDS011;2731;50.754;12.990;2023-07-28T06:24:16;0.25;;;0.25;;
5416;SDS011;2731;50.754;12.990;2023-07-28T06:27:03;2.83;;;0.30;;
5416;SDS011;2731;50.754;12.990;2023-07-28T06:29:53;0.40;;;0.40;;
5416;SDS011;2731;50.754;12.990;2023-07-28T06:32:39;6.72;;;0.50;;
5416;SDS011;2731;50.754;12.990;2023-07-28T06:35:26;0.77;;;0.40;;
5416;SDS011;2731;50.754;12.990;2023-07-28T06:38:07;0.40;;;0.40;;
5416;SDS011;2731;50.754;12.990;2023-07-28T06:40:54;0.13;;;0.13;;
5416;SDS011;2731;50.754;12.990;2023-07-28T06:43:23;2.05;;;0.30;;
5416;SDS011;2731;50.754;12.990;2023-07-28T06:46:20;0.35;;;0.30;;
5416;SDS011;2731;50.754;12.990;2023-07-28T06:48:49;0.50;;;0.32;;
5416;SDS011;2731;50.754;12.990;2023-07-28T06:51:38;1.02;;;0.10;;
5416;SDS011;2731;50.754;12.990;2023-07-28T06:54:24;0.10;;;0.10;;
5416;SDS011;2731;50.754;12.990;2023-07-28T06:57:10;2.72;;;0.30;;
5416;SDS011;2731;50.754;12.990;2023-07-28T06:59:57;0.30;;;0.20;;
5416;SDS011;2731;50.754;12.990;2023-07-28T07:02:52;0.15;;;0.13;;
5416;SDS011;2731;50.754;12.990;2023-07-28T07:05:40;0.88;;;0.20;;
5416;SDS011;2731;50.754;12.990;2023-07-28T07:08:14;3.63;;;0.35;;
5416;SDS011;2731;50.754;12.990;2023-07-28T07:11:00;0.30;;;0.30;;
5416;SDS011;2731;50.754;12.990;2023-07-28T07:13:28;0.20;;;0.20;;
5416;SDS011;2731;50.754;12.990;2023-07-28T07:16:24;0.22;;;0.20;;
5416;SDS011;2731;50.754;12.990;2023-07-28T07:18:53;0.30;;;0.20;;
5416;SDS011;2731;50.754;12.990;2023-07-28T07:21:41;0.25;;;0.20;;
5416;SDS011;2731;50.754;12.990;2023-07-28T07:24:29;0.20;;;0.20;;
5416;SDS011;2731;50.754;12.990;2023-07-28T07:27:15;0.35;;;0.20;;
5416;SDS011;2731;50.754;12.990;2023-07-28T07:30:06;2.92;;;0.28;;
5416;SDS011;2731;50.754;12.990;2023-07-28T07:32:52;0.50;;;0.28;;
5416;SDS011;2731;50.754;12.990;2023-07-28T07:35:39;0.73;;;0.20;;
5416;SDS011;2731;50.754;12.990;2023-07-28T07:38:17;4.95;;;0.38;;
5416;SDS011;2731;50.754;12.990;2023-07-28T07:41:02;0.40;;;0.20;;
5416;SDS011;2731;50.754;12.990;2023-07-28T07:43:31;1.65;;;0.20;;
5416;SDS011;2731;50.754;12.990;2023-07-28T07:46:16;0.63;;;0.25;;
5416;SDS011;2731;50.754;12.990;2023-07-28T07:48:45;0.40;;;0.40;;
5416;SDS011;2731;50.754;12.990;2023-07-28T07:51:31;0.45;;;0.20;;
5416;SDS011;2731;50.754;12.990;2023-07-28T07:54:01;0.80;;;0.50;;
5416;SDS011;2731;50.754;12.990;2023-07-28T07:56:50;0.35;;;0.20;;
5416;SDS011;2731;50.754;12.990;2023-07-28T07:59:35;1.58;;;0.20;;
5416;SDS011;2731;50.754;12.990;2023-07-28T08:02:21;1.08;;;0.47;;
5416;SDS011;2731;50.754;12.990;2023-07-28T08:05:07;0.73;;;0.22;;
5416;SDS011;2731;50.754;12.990;2023-07-28T08:07:54;0.30;;;0.30;;
5416;SDS011;2731;50.754;12.990;2023-07-28T08:10:41;0.95;;;0.30;;
5416;SDS011;2731;50.754;12.990;2023-07-28T08:13:19;0.90;;;0.30;;
5416;SDS011;2731;50.754;12.990;2023-07-28T08:16:10;0.20;;;0.20;;
5416;SDS011;2731;50.754;12.990;2023-07-28T08:18:36;0.28;;;0.28;;
5416;SDS011;2731;50.754;12.990;2023-07-28T08:21:21;0.20;;;0.20;;
5416;SDS011;2731;50.754;12.990;2023-07-28T08:23:49;1.67;;;0.40;;
5416;SDS011;2731;50.754;12.990;2023-07-28T08:26:35;0.32;;;0.28;;
5416;SDS011;2731;50.754;12.990;2023-07-28T08:29:06;0.45;;;0.38;;
5416;SDS011;2731;50.754;12.990;2023-07-28T08:31:34;0.75;;;0.30;;
5416;SDS011;2731;50.754;12.990;2023-07-28T08:34:01;0.35;;;0.32;;
5416;SDS011;2731;50.754;12.990;2023-07-28T08:36:31;0.35;;;0.35;;
5416;SDS011;2731;50.754;12.990;2023-07-28T08:38:59;0.95;;;0.30;;
5416;SDS011;2731;50.754;12.990;2023-07-28T08:41:28;2.70;;;0.47;;
5416;SDS011;2731;50.754;12.990;2023-07-28T08:43:55;0.45;;;0.20;;
5416;SDS011;2731;50.754;12.990;2023-07-28T08:46:26;0.73;;;0.40;;
5416;SDS011;2731;50.754;12.990;2023-07-28T08:48:52;0.30;;;0.20;;
5416;SDS011;2731;50.754;12.990;2023-07-28T08:51:26;0.68;;;0.40;;
5416;SDS011;2731;50.754;12.990;2023-07-28T08:53:52;0.30;;;0.25;;
5416;SDS011;2731;50.754;12.990;2023-07-28T08:56:24;0.85;;;0.25;;
5416;SDS011;2731;50.754;12.990;2023-07-28T08:58:59;1.55;;;0.10;;
5416;SDS011;2731;50.754;12.990;2023-07-28T09:01:26;1.17;;;0.45;;
5416;SDS011;2731;50.754;12.990;2023-07-28T09:03:56;0.52;;;0.30;;
5416;SDS011;2731;50.754;12.990;2023-07-28T09:06:29;0.28;;;0.28;;
5416;SDS011;2731;50.754;12.990;2023-07-28T09:09:02;0.90;;;0.50;;
5416;SDS011;2731;50.754;12.990;2023-07-28T09:11:53;0.30;;;0.20;;
5416;SDS011;2731;50.754;12.990;2023-07-28T09:14:21;1.75;;;0.43;;
5416;SDS011;2731;50.754;12.990;2023-07-28T09:16:49;1.65;;;0.50;;
5416;SDS011;2731;50.754;12.990;2023-07-28T09:19:19;0.20;;;0.20;;
5416;SDS011;2731;50.754;12.990;2023-07-28T09:21:57;0.20;;;0.20;;
5416;SDS011;2731;50.754;12.990;2023-07-28T09:24:29;0.10;;;0.10;;
5416;SDS011;2731;50.754;12.990;2023-07-28T09:26:57;0.47;;;0.43;;
5416;SDS011;2731;50.754;12.990;2023-07-28T09:29:26;0.80;;;0.10;;
5416;SDS011;2731;50.754;12.990;2023-07-28T09:34:27;2.42;;;0.38;;
5416;SDS011;2731;50.754;12.990;2023-07-28T09:36:59;1.88;;;0.20;;
5416;SDS011;2731;50.754;12.990;2023-07-28T09:39:26;0.25;;;0.22;;
5416;SDS011;2731;50.754;12.990;2023-07-28T09:41:55;0.60;;;0.43;;
5416;SDS011;2731;50.754;12.990;2023-07-28T09:44:25;1.38;;;0.40;;
5416;SDS011;2731;50.754;12.990;2023-07-28T09:46:54;0.50;;;0.30;;
5416;SDS011;2731;50.754;12.990;2023-07-28T09:49:34;0.60;;;0.28;;
5416;SDS011;2731;50.754;12.990;2023-07-28T09:52:03;1.85;;;0.43;;
5416;SDS011;2731;50.754;12.990;2023-07-28T09:54:33;2.17;;;0.30;;
5416;SDS011;2731;50.754;12.990;2023-07-28T09:57:07;0.35;;;0.30;;
5416;SDS011;2731;50.754;12.990;2023-07-28T09:59:38;1.55;;;0.30;;
5416;SDS011;2731;50.754;12.990;2023-07-28T10:02:05;0.73;;;0.43;;
5416;SDS011;2731;50.754;12.990;2023-07-28T10:04:31;0.38;;;0.38;;
5416;SDS011;2731;50.754;12.990;2023-07-28T10:06:59;0.65;;;0.30;;
5416;SDS011;2731;50.754;12.990;2023-07-28T10:09:29;0.40;;;0.40;;
5416;SDS011;2731;50.754;12.990;2023-07-28T10:12:03;0.60;;;0.50;;
5416;SDS011;2731;50.754;12.990;2023-07-28T10:14:34;0.93;;;0.30;;
5416;SDS011;2731;50.754;12.990;2023-07-28T10:17:03;0.40;;;0.40;;
5416;SDS011;2731;50.754;12.990;2023-07-28T10:19:34;2.40;;;0.32;;
5416;SDS011;2731;50.754;12.990;2023-07-28T10:22:06;0.52;;;0.45;;
5416;SDS011;2731;50.754;12.990;2023-07-28T10:27:38;0.98;;;0.60;;
5416;SDS011;2731;50.754;12.990;2023-07-28T10:30:11;0.60;;;0.60;;
5416;SDS011;2731;50.754;12.990;2023-07-28T10:32:41;0.90;;;0.60;;
5416;SDS011;2731;50.754;12.990;2023-07-28T10:37:44;0.40;;;0.40;;
5416;SDS011;2731;50.754;12.990;2023-07-28T10:40:27;0.57;;;0.57;;
5416;SDS011;2731;50.754;12.990;2023-07-28T10:42:54;0.50;;;0.50;;
5416;SDS011;2731;50.754;12.990;2023-07-28T10:45:23;0.90;;;0.60;;
5416;SDS011;2731;50.754;12.990;2023-07-28T10:47:51;0.55;;;0.52;;
5416;SDS011;2731;50.754;12.990;2023-07-28T10:50:19;1.25;;;0.60;;
5416;SDS011;2731;50.754;12.990;2023-07-28T10:52:48;0.47;;;0.45;;
5416;SDS011;2731;50.754;12.990;2023-07-28T10:55:19;0.65;;;0.60;;
5416;SDS011;2731;50.754;12.990;2023-07-28T10:57:48;0.70;;;0.60;;
5416;SDS011;2731;50.754;12.990;2023-07-28T11:00:19;0.70;;;0.30;;
5416;SDS011;2731;50.754;12.990;2023-07-28T11:02:51;2.42;;;0.65;;
5416;SDS011;2731;50.754;12.990;2023-07-28T11:07:53;0.40;;;0.40;;
5416;SDS011;2731;50.754;12.990;2023-07-28T11:10:21;0.60;;;0.57;;
5416;SDS011;2731;50.754;12.990;2023-07-28T11:12:51;0.55;;;0.55;;
5416;SDS011;2731;50.754;12.990;2023-07-28T11:15:21;0.57;;;0.50;;
5416;SDS011;2731;50.754;12.990;2023-07-28T11:17:54;0.80;;;0.43;;
5416;SDS011;2731;50.754;12.990;2023-07-28T11:20:25;0.45;;;0.45;;
5416;SDS011;2731;50.754;12.990;2023-07-28T11:22:55;0.70;;;0.65;;
5416;SDS011;2731;50.754;12.990;2023-07-28T11:25:23;0.60;;;0.55;;
5416;SDS011;2731;50.754;12.990;2023-07-28T11:27:50;1.20;;;0.88;;
5416;SDS011;2731;50.754;12.990;2023-07-28T11:30:19;1.02;;;0.60;;
5416;SDS011;2731;50.754;12.990;2023-07-28T11:32:49;0.77;;;0.68;;
5416;SDS011;2731;50.754;12.990;2023-07-28T11:35:18;0.50;;;0.50;;
5416;SDS011;2731;50.754;12.990;2023-07-28T11:37:48;1.08;;;0.80;;
5416;SDS011;2731;50.754;12.990;2023-07-28T11:40:27;0.43;;;0.43;;
5416;SDS011;2731;50.754;12.990;2023-07-28T11:43:13;0.50;;;0.50;;
5416;SDS011;2731;50.754;12.990;2023-07-28T11:45:40;0.73;;;0.73;;
5416;SDS011;2731;50.754;12.990;2023-07-28T11:48:09;0.73;;;0.63;;
5416;SDS011;2731;50.754;12.990;2023-07-28T11:50:40;0.82;;;0.65;;
5416;SDS011;2731;50.754;12.990;2023-07-28T11:53:13;0.80;;;0.60;;
5416;SDS011;2731;50.754;12.990;2023-07-28T11:55:41;0.70;;;0.70;;
5416;SDS011;2731;50.754;12.990;2023-07-28T11:58:08;1.02;;;0.60;;
5416;SDS011;2731;50.754;12.990;2023-07-28T12:00:37;1.92;;;0.65;;
5416;SDS011;2731;50.754;12.990;2023-07-28T12:03:09;0.70;;;0.70;;
5416;SDS011;2731;50.754;12.990;2023-07-28T12:05:58;0.50;;;0.50;;
5416;SDS011;2731;50.754;12.990;2023-07-28T12:08:37;0.65;;;0.60;;
5416;SDS011;2731;50.754;12.990;2023-07-28T12:11:06;0.50;;;0.50;;
5416;SDS011;2731;50.754;12.990;2023-07-28T12:13:52;0.50;;;0.50;;
5416;SDS011;2731;50.754;12.990;2023-07-28T12:16:40;0.77;;;0.60;;
5416;SDS011;2731;50.754;12.990;2023-07-28T12:19:09;0.60;;;0.60;;
5416;SDS011;2731;50.754;12.990;2023-07-28T12:21:37;1.08;;;0.70;;
5416;SDS011;2731;50.754;12.990;2023-07-28T12:24:06;0.50;;;0.50;;
5416;SDS011;2731;50.754;12.990;2023-07-28T12:26:36;0.40;;;0.40;;
5416;SDS011;2731;50.754;12.990;2023-07-28T12:29:05;0.57;;;0.57;;
5416;SDS011;2731;50.754;12.990;2023-07-28T12:31:32;1.88;;;0.73;;
5416;SDS011;2731;50.754;12.990;2023-07-28T12:34:00;0.75;;;0.60;;
5416;SDS011;2731;50.754;12.990;2023-07-28T12:36:51;0.70;;;0.60;;
5416;SDS011;2731;50.754;12.990;2023-07-28T12:39:18;2.10;;;0.60;;
5416;SDS011;2731;50.754;12.990;2023-07-28T12:41:46;0.60;;;0.60;;
5416;SDS011;2731;50.754;12.990;2023-07-28T12:44:16;0.50;;;0.50;;
5416;SDS011;2731;50.754;12.990;2023-07-28T12:46:46;0.73;;;0.73;;
5416;SDS011;2731;50.754;12.990;2023-07-28T12:49:14;0.60;;;0.60;;
5416;SDS011;2731;50.754;12.990;2023-07-28T12:51:40;0.45;;;0.45;;
5416;SDS011;2731;50.754;12.990;2023-07-28T12:54:07;0.75;;;0.60;;
5416;SDS011;2731;50.754;12.990;2023-07-28T12:56:36;0.73;;;0.60;;
5416;SDS011;2731;50.754;12.990;2023-07-28T12:59:03;1.58;;;0.82;;
5416;SDS011;2731;50.754;12.990;2023-07-28T13:01:33;2.25;;;0.77;;
5416;SDS011;2731;50.754;12.990;2023-07-28T13:04:02;0.50;;;0.50;;
5416;SDS011;2731;50.754;12.990;2023-07-28T13:06:31;0.98;;;0.60;;
5416;SDS011;2731;50.754;12.990;2023-07-28T13:08:58;0.50;;;0.50;;
5416;SDS011;2731;50.754;12.990;2023-07-28T13:11:27;0.30;;;0.30;;
5416;SDS011;2731;50.754;12.990;2023-07-28T13:13:54;1.20;;;0.80;;
5416;SDS011;2731;50.754;12.990;2023-07-28T13:16:23;0.60;;;0.60;;
5416;SDS011;2731;50.754;12.990;2023-07-28T13:18:52;0.40;;;0.40;;
5416;SDS011;2731;50.754;12.990;2023-07-28T13:21:19;1.90;;;0.80;;
5416;SDS011;2731;50.754;12.990;2023-07-28T13:23:47;0.60;;;0.60;;
5416;SDS011;2731;50.754;12.990;2023-07-28T13:26:15;0.75;;;0.70;;
5416;SDS011;2731;50.754;12.990;2023-07-28T13:28:43;2.33;;;0.68;;
5416;SDS011;2731;50.754;12.990;2023-07-28T13:31:16;0.70;;;0.70;;
5416;SDS011;2731;50.754;12.990;2023-07-28T13:33:46;2.08;;;0.52;;
5416;SDS011;2731;50.754;12.990;2023-07-28T13:36:15;1.85;;;0.60;;
5416;SDS011;2731;50.754;12.990;2023-07-28T13:38:41;0.88;;;0.70;;
5416;SDS011;2731;50.754;12.990;2023-07-28T13:41:10;1.67;;;0.40;;
5416;SDS011;2731;50.754;12.990;2023-07-28T13:43:39;0.82;;;0.60;;
5416;SDS011;2731;50.754;12.990;2023-07-28T13:46:08;1.50;;;0.80;;
5416;SDS011;2731;50.754;12.990;2023-07-28T13:48:38;0.70;;;0.70;;
5416;SDS011;2731;50.754;12.990;2023-07-28T13:51:08;1.52;;;0.63;;
5416;SDS011;2731;50.754;12.990;2023-07-28T13:53:35;3.55;;;1.20;;
5416;SDS011;2731;50.754;12.990;2023-07-28T13:56:03;0.70;;;0.70;;
5416;SDS011;2731;50.754;12.990;2023-07-28T13:58:31;0.52;;;0.52;;
5416;SDS011;2731;50.754;12.990;2023-07-28T14:00:59;0.90;;;0.70;;
5416;SDS011;2731;50.754;12.990;2023-07-28T14:03:27;0.88;;;0.68;;
5416;SDS011;2731;50.754;12.990;2023-07-28T14:05:54;1.02;;;0.80;;
5416;SDS011;2731;50.754;12.990;2023-07-28T14:08:20;0.60;;;0.50;;
5416;SDS011;2731;50.754;12.990;2023-07-28T14:10:48;1.25;;;0.70;;
5416;SDS011;2731;50.754;12.990;2023-07-28T14:13:17;0.90;;;0.70;;
5416;SDS011;2731;50.754;12.990;2023-07-28T14:15:43;2.25;;;0.60;;
5416;SDS011;2731;50.754;12.990;2023-07-28T14:18:13;0.60;;;0.60;;
5416;SDS011;2731;50.754;12.990;2023-07-28T14:20:39;1.75;;;0.50;;
5416;SDS011;2731;50.754;12.990;2023-07-28T14:25:52;0.60;;;0.60;;
5416;SDS011;2731;50.754;12.990;2023-07-28T14:28:21;0.90;;;0.65;;
5416;SDS011;2731;50.754;12.990;2023-07-28T14:30:51;0.70;;;0.70;;
5416;SDS011;2731;50.754;12.990;2023-07-28T14:33:22;0.70;;;0.70;;
5416;SDS011;2731;50.754;12.990;2023-07-28T14:35:50;0.65;;;0.60;;
5416;SDS011;2731;50.754;12.990;2023-07-28T14:38:20;0.70;;;0.70;;
5416;SDS011;2731;50.754;12.990;2023-07-28T14:40:49;0.70;;;0.70;;
5416;SDS011;2731;50.754;12.990;2023-07-28T14:43:17;2.25;;;0.68;;
5416;SDS011;2731;50.754;12.990;2023-07-28T14:45:49;1.35;;;0.60;;
5416;SDS011;2731;50.754;12.990;2023-07-28T14:48:21;0.60;;;0.60;;
5416;SDS011;2731;50.754;12.990;2023-07-28T14:50:49;0.50;;;0.50;;
5416;SDS011;2731;50.754;12.990;2023-07-28T14:56:04;0.98;;;0.68;;
5416;SDS011;2731;50.754;12.990;2023-07-28T14:58:35;2.55;;;0.60;;
5416;SDS011;2731;50.754;12.990;2023-07-28T15:01:01;3.35;;;1.25;;
5416;SDS011;2731;50.754;12.990;2023-07-28T15:03:35;0.50;;;0.50;;
5416;SDS011;2731;50.754;12.990;2023-07-28T15:06:02;0.50;;;0.50;;
5416;SDS011;2731;50.754;12.990;2023-07-28T15:08:34;0.63;;;0.63;;
5416;SDS011;2731;50.754;12.990;2023-07-28T15:11:01;0.60;;;0.60;;
5416;SDS011;2731;50.754;12.990;2023-07-28T15:13:31;0.60;;;0.60;;
5416;SDS011;2731;50.754;12.990;2023-07-28T15:15:59;3.13;;;0.60;;
5416;SDS011;2731;50.754;12.990;2023-07-28T15:18:27;0.40;;;0.40;;
5416;SDS011;2731;50.754;12.990;2023-07-28T15:20:56;0.50;;;0.50;;
5416;SDS011;2731;50.754;12.990;2023-07-28T15:23:25;0.68;;;0.60;;
5416;SDS011;2731;50.754;12.990;2023-07-28T15:25:54;2.38;;;0.57;;
5416;SDS011;2731;50.754;12.990;2023-07-28T15:28:24;0.43;;;0.43;;
5416;SDS011;2731;50.754;12.990;2023-07-28T15:30:52;0.50;;;0.50;;
5416;SDS011;2731;50.754;12.990;2023-07-28T15:33:25;0.93;;;0.90;;
5416;SDS011;2731;50.754;12.990;2023-07-28T15:35:56;5.00;;;3.05;;
5416;SDS011;2731;50.754;12.990;2023-07-28T15:38:25;0.70;;;0.70;;
5416;SDS011;2731;50.754;12.990;2023-07-28T15:40:52;1.30;;;0.65;;
5416;SDS011;2731;50.754;12.990;2023-07-28T15:43:24;1.27;;;0.40;;
5416;SDS011;2731;50.754;12.990;2023-07-28T15:45:53;1.60;;;0.80;;
5416;SDS011;2731;50.754;12.990;2023-07-28T15:48:21;0.85;;;0.57;;
5416;SDS011;2731;50.754;12.990;2023-07-28T15:50:48;0.50;;;0.50;;
5416;SDS011;2731;50.754;12.990;2023-07-28T15:53:18;0.63;;;0.63;;
5416;SDS011;2731;50.754;12.990;2023-07-28T15:55:46;0.55;;;0.52;;
5416;SDS011;2731;50.754;12.990;2023-07-28T15:58:14;3.92;;;0.70;;
5416;SDS011;2731;50.754;12.990;2023-07-28T16:00:41;0.65;;;0.60;;
5416;SDS011;2731;50.754;12.990;2023-07-28T16:03:09;0.95;;;0.75;;
5416;SDS011;2731;50.754;12.990;2023-07-28T16:05:37;2.38;;;0.60;;
5416;SDS011;2731;50.754;12.990;2023-07-28T16:08:11;1.20;;;0.60;;